Time;durP1;ratioP1;P1;durP2;ratioP2;P2;SDS_P1;SDS_P2;PMS_P1;PMS_P2;Temp;Humidity;BMP_temperature;BMP_pressure;BME280_temperature;BME280_humidity;BME280_pressure;Samples;Min_cycle;Max_cycle;Signal;HPM_P1;HPM_P2
2023/01/29 07:01:10;;;;;;;;;61.50;48.00;;;;;;;;6323197;22;47020;-65
2023/01/29 07:03:35;;;;;;;;;59.50;49.00;;;;;;;;6401004;22;45372;-64
2023/01/29 07:06:01;;;;;;;;;53.25;45.50;;;;;;;;6401325;22;45489;-65
2023/01/29 07:08:27;;;;;;;;;64.75;50.00;;;;;;;;6403499;22;45276;-65
2023/01/29 07:10:52;;;;;;;;;68.00;50.00;;;;;;;;6403134;22;46129;-65
2023/01/29 07:13:17;;;;;;;;;60.50;48.75;;;;;;;;6402653;22;45545;-65
2023/01/29 07:15:43;;;;;;;;;61.00;49.00;;;;;;;;6404618;22;45269;-65
2023/01/29 07:18:11;;;;;;;;;58.25;46.50;;;;;;;;6402531;22;45416;-65
2023/01/29 07:20:37;;;;;;;;;62.75;47.75;;;;;;;;6404702;22;46199;-65
2023/01/29 07:23:03;;;;;;;;;66.00;47.00;;;;;;;;6374600;22;45333;-65
2023/01/29 07:25:29;;;;;;;;;61.75;49.25;;;;;;;;6404955;22;45275;-65
2023/01/29 07:27:54;;;;;;;;;61.00;47.75;;;;;;;;6403964;22;45254;-65
2023/01/29 07:30:20;;;;;;;;;60.00;44.75;;;;;;;;6404462;22;45333;-65
2023/01/29 07:32:45;;;;;;;;;64.25;48.50;;;;;;;;6404358;22;45171;-65
2023/01/29 07:35:10;;;;;;;;;64.50;48.75;;;;;;;;6402907;22;45533;-65
2023/01/29 07:37:35;;;;;;;;;62.00;47.00;;;;;;;;6404291;22;45189;-65
2023/01/29 07:40:01;;;;;;;;;56.00;45.50;;;;;;;;6403638;22;45300;-65
2023/01/29 07:42:26;;;;;;;;;58.50;46.50;;;;;;;;6404330;22;45233;-64
2023/01/29 07:44:51;;;;;;;;;59.00;43.25;;;;;;;;6403904;22;45152;-65
2023/01/29 07:47:16;;;;;;;;;65.50;50.50;;;;;;;;6404752;22;45175;-65
2023/01/29 07:49:41;;;;;;;;;61.25;47.00;;;;;;;;6403855;22;45369;-65
2023/01/29 07:52:07;;;;;;;;;70.25;52.50;;;;;;;;6402826;22;45281;-65
2023/01/29 07:54:32;;;;;;;;;65.50;48.75;;;;;;;;6403656;22;45242;-65
2023/01/29 07:56:57;;;;;;;;;68.25;55.00;;;;;;;;6403894;22;45216;-65
2023/01/29 07:59:22;;;;;;;;;63.75;48.25;;;;;;;;6403929;22;47165;-65
2023/01/29 08:01:47;;;;;;;;;66.00;50.25;;;;;;;;6403334;22;45248;-65
2023/01/29 08:04:13;;;;;;;;;60.75;50.25;;;;;;;;6403503;22;45300;-64
2023/01/29 08:06:38;;;;;;;;;57.75;46.75;;;;;;;;6375310;22;45428;-64
2023/01/29 08:09:03;;;;;;;;;60.75;48.50;;;;;;;;6402282;22;45390;-65
2023/01/29 08:11:29;;;;;;;;;63.75;52.50;;;;;;;;6403744;22;45196;-64
2023/01/29 08:13:55;;;;;;;;;68.25;50.50;;;;;;;;6403598;22;45175;-66
2023/01/29 08:16:20;;;;;;;;;60.75;51.50;;;;;;;;6404056;22;45500;-65
2023/01/29 08:18:47;;;;;;;;;63.75;46.25;;;;;;;;6404398;22;45940;-65
2023/01/29 08:21:12;;;;;;;;;64.00;51.50;;;;;;;;6403181;22;45265;-64
2023/01/29 08:23:37;;;;;;;;;65.00;49.75;;;;;;;;6402670;22;45323;-66
2023/01/29 08:26:03;;;;;;;;;62.00;50.00;;;;;;;;6403407;22;45205;-65
2023/01/29 08:28:28;;;;;;;;;52.50;42.00;;;;;;;;6404381;22;45206;-66
2023/01/29 08:30:53;;;;;;;;;63.00;47.50;;;;;;;;6403980;22;45272;-65
2023/01/29 08:33:19;;;;;;;;;67.75;49.25;;;;;;;;6403855;22;45336;-64
2023/01/29 08:35:47;;;;;;;;;66.00;49.75;;;;;;;;6404057;22;45293;-65
2023/01/29 08:38:12;;;;;;;;;66.00;51.00;;;;;;;;6402899;22;46305;-64
2023/01/29 08:40:38;;;;;;;;;68.00;51.25;;;;;;;;6402718;22;45269;-65
2023/01/29 08:43:04;;;;;;;;;68.25;52.00;;;;;;;;6402688;22;45270;-65
2023/01/29 08:45:31;;;;;;;;;65.75;50.75;;;;;;;;6404071;22;45357;-64
2023/01/29 08:47:57;;;;;;;;;65.75;50.25;;;;;;;;6402552;22;48100;-68
2023/01/29 08:50:22;;;;;;;;;62.00;51.50;;;;;;;;6403320;22;45289;-66
2023/01/29 08:52:47;;;;;;;;;71.75;52.50;;;;;;;;6403695;22;45147;-65
2023/01/29 08:55:13;;;;;;;;;71.25;57.75;;;;;;;;6403387;22;45171;-66
2023/01/29 08:57:38;;;;;;;;;68.75;52.25;;;;;;;;6403054;22;45997;-64
2023/01/29 09:00:05;;;;;;;;;68.00;52.25;;;;;;;;6402829;22;45218;-64
2023/01/29 09:02:30;;;;;;;;;70.00;50.75;;;;;;;;6403192;22;45210;-65
2023/01/29 09:04:55;;;;;;;;;59.25;49.00;;;;;;;;6403138;22;45206;-64
2023/01/29 09:07:21;;;;;;;;;65.75;49.50;;;;;;;;6402841;22;47367;-64
2023/01/29 09:09:46;;;;;;;;;63.50;49.75;;;;;;;;6403829;22;45263;-63
2023/01/29 09:12:11;;;;;;;;;60.50;49.50;;;;;;;;6403465;22;45260;-65
2023/01/29 09:14:36;;;;;;;;;64.00;48.25;;;;;;;;6402527;22;45253;-64
2023/01/29 09:17:01;;;;;;;;;59.25;47.75;;;;;;;;6402550;22;45237;-65
2023/01/29 09:19:27;;;;;;;;;61.75;51.50;;;;;;;;6403086;22;45234;-65
2023/01/29 09:21:52;;;;;;;;;62.75;48.50;;;;;;;;6373252;22;45256;-65
2023/01/29 09:24:17;;;;;;;;;53.75;41.50;;;;;;;;6402984;22;45397;-65
2023/01/29 09:26:42;;;;;;;;;57.25;44.50;;;;;;;;6403804;22;46029;-65
2023/01/29 09:29:09;;;;;;;;;57.25;43.75;;;;;;;;6402812;22;45285;-66
2023/01/29 09:31:34;;;;;;;;;57.00;44.00;;;;;;;;6404007;22;45291;-66
2023/01/29 09:33:59;;;;;;;;;48.25;38.25;;;;;;;;6400326;22;45707;-66
2023/01/29 09:36:24;;;;;;;;;56.50;44.75;;;;;;;;6393712;22;45329;-65
2023/01/29 09:38:49;;;;;;;;;60.50;47.50;;;;;;;;6402976;22;45566;-66
2023/01/29 09:41:15;;;;;;;;;54.50;42.50;;;;;;;;6401290;22;45239;-66
2023/01/29 09:43:43;;;;;;;;;59.00;42.25;;;;;;;;6402941;22;45339;-65
2023/01/29 09:46:18;;;;;;;;;55.75;44.75;;;;;;;;6401802;22;45200;-66
2023/01/29 09:48:45;;;;;;;;;61.25;46.75;;;;;;;;6401165;22;45547;-65
2023/01/29 09:51:30;;;;;;;;;55.25;44.25;;;;;;;;6400398;22;45318;-66
2023/01/29 09:54:28;;;;;;;;;55.25;46.00;;;;;;;;6399982;22;45572;-67
2023/01/29 09:56:55;;;;;;;;;58.50;46.50;;;;;;;;6319167;22;46347;-66
2023/01/29 09:59:21;;;;;;;;;60.75;47.50;;;;;;;;6373801;22;45425;-66
2023/01/29 10:01:47;;;;;;;;;48.50;40.00;;;;;;;;6368757;22;45435;-66
2023/01/29 10:04:25;;;;;;;;;59.00;43.50;;;;;;;;6367496;22;45614;-68
2023/01/29 10:06:59;;;;;;;;;59.00;43.25;;;;;;;;6366626;22;45239;-63
2023/01/29 10:09:27;;;;;;;;;58.50;47.50;;;;;;;;6366715;22;45167;-62
2023/01/29 10:12:02;;;;;;;;;63.25;48.50;;;;;;;;6365689;22;45365;-63
2023/01/29 10:14:36;;;;;;;;;61.00;46.25;;;;;;;;6367765;22;45366;-63
2023/01/29 10:17:07;;;;;;;;;55.00;44.50;;;;;;;;6368896;22;47315;-62
2023/01/29 10:19:33;;;;;;;;;62.50;45.00;;;;;;;;6370794;22;45365;-61
2023/01/29 10:22:08;;;;;;;;;56.50;47.50;;;;;;;;6370881;22;45345;-61
2023/01/29 10:24:50;;;;;;;;;56.50;45.00;;;;;;;;6372041;22;45167;-61
2023/01/29 10:27:16;;;;;;;;;57.50;45.50;;;;;;;;6370811;22;46108;-62
2023/01/29 10:29:42;;;;;;;;;57.00;44.50;;;;;;;;6369918;22;45282;-61
2023/01/29 10:32:12;;;;;;;;;55.75;45.25;;;;;;;;6371852;22;45300;-62
2023/01/29 10:34:47;;;;;;;;;50.50;40.25;;;;;;;;6372690;22;45315;-61
2023/01/29 10:37:22;;;;;;;;;53.25;43.75;;;;;;;;6372329;22;45265;-61
2023/01/29 10:39:48;;;;;;;;;56.75;43.50;;;;;;;;6372051;22;45311;-61
2023/01/29 10:42:19;;;;;;;;;58.25;43.75;;;;;;;;6372289;22;45221;-61
2023/01/29 10:44:44;;;;;;;;;55.50;40.25;;;;;;;;6371003;22;45368;-61
2023/01/29 10:47:34;;;;;;;;;46.00;40.50;;;;;;;;6372312;22;45943;-61
2023/01/29 10:50:03;;;;;;;;;52.00;42.25;;;;;;;;6371399;22;45293;-62
2023/01/29 10:52:31;;;;;;;;;53.00;40.25;;;;;;;;6371958;22;45354;-61
2023/01/29 10:55:02;;;;;;;;;57.75;45.75;;;;;;;;6371875;22;45284;-61
2023/01/29 10:57:46;;;;;;;;;49.00;41.25;;;;;;;;6372473;22;45168;-61
2023/01/29 11:00:18;;;;;;;;;53.25;42.50;;;;;;;;6370607;22;45291;-61
2023/01/29 11:02:50;;;;;;;;;52.75;42.25;;;;;;;;6401367;22;45317;-61
2023/01/29 11:05:19;;;;;;;;;51.25;41.75;;;;;;;;6403435;22;45252;-62
2023/01/29 11:07:45;;;;;;;;;52.75;42.25;;;;;;;;6404202;22;46434;-62
2023/01/29 11:10:13;;;;;;;;;50.50;42.00;;;;;;;;6403636;22;45630;-61
2023/01/29 11:12:40;;;;;;;;;55.75;41.75;;;;;;;;6403865;22;45231;-61
2023/01/29 11:15:15;;;;;;;;;54.75;44.00;;;;;;;;6403778;22;45281;-61
2023/01/29 11:17:59;;;;;;;;;57.25;45.00;;;;;;;;6403880;22;46067;-61
2023/01/29 11:20:25;;;;;;;;;56.75;43.75;;;;;;;;6404223;22;45251;-62
2023/01/29 11:22:57;;;;;;;;;57.50;46.00;;;;;;;;6403149;22;45169;-62
2023/01/29 11:25:22;;;;;;;;;55.75;43.75;;;;;;;;6403747;22;45307;-61
2023/01/29 11:27:47;;;;;;;;;53.75;42.75;;;;;;;;6404427;22;46206;-61
2023/01/29 11:30:20;;;;;;;;;54.00;40.25;;;;;;;;6403924;22;45237;-61
2023/01/29 11:32:49;;;;;;;;;55.00;43.50;;;;;;;;6405064;22;45397;-61
2023/01/29 11:35:14;;;;;;;;;54.25;42.75;;;;;;;;6401842;22;45248;-62
2023/01/29 11:37:41;;;;;;;;;49.75;38.75;;;;;;;;6404128;22;45292;-61
2023/01/29 11:40:18;;;;;;;;;50.00;42.75;;;;;;;;6403548;22;45692;-62
2023/01/29 11:42:44;;;;;;;;;40.75;33.50;;;;;;;;6404407;22;45419;-61
2023/01/29 11:45:21;;;;;;;;;49.75;39.75;;;;;;;;6404210;22;45556;-62
2023/01/29 11:47:51;;;;;;;;;51.75;41.75;;;;;;;;6404262;22;45359;-62
2023/01/29 11:50:22;;;;;;;;;47.25;38.25;;;;;;;;6402870;22;45326;-61
2023/01/29 11:52:47;;;;;;;;;45.75;36.00;;;;;;;;6401852;22;45592;-62
2023/01/29 11:55:16;;;;;;;;;49.00;39.00;;;;;;;;6402515;22;45492;-62
2023/01/29 11:57:45;;;;;;;;;46.33;36.33;;;;;;;;6403414;22;46120;-62
2023/01/29 12:00:13;;;;;;;;;47.00;37.75;;;;;;;;6402931;22;45281;-62
2023/01/29 12:02:44;;;;;;;;;50.67;38.33;;;;;;;;6403211;22;45224;-62
2023/01/29 12:05:19;;;;;;;;;42.67;35.00;;;;;;;;6403227;22;45336;-62
2023/01/29 12:07:47;;;;;;;;;55.00;38.75;;;;;;;;6403135;22;46962;-62
2023/01/29 12:10:36;;;;;;;;;46.00;37.75;;;;;;;;6403807;22;45392;-62
2023/01/29 12:13:05;;;;;;;;;41.67;36.00;;;;;;;;6384759;22;45273;-62
2023/01/29 12:15:30;;;;;;;;;33.33;27.33;;;;;;;;6403851;22;45352;-63
2023/01/29 12:18:07;;;;;;;;;39.67;32.67;;;;;;;;6401197;22;45454;-60
2023/01/29 12:20:36;;;;;;;;;43.00;35.25;;;;;;;;6400012;22;45281;-63
2023/01/29 12:23:13;;;;;;;;;45.75;37.25;;;;;;;;6364159;22;45289;-62
2023/01/29 12:25:52;;;;;;;;;53.00;40.75;;;;;;;;6398341;22;45337;-61
2023/01/29 12:28:35;;;;;;;;;38.50;35.75;;;;;;;;6401453;22;45894;-62
2023/01/29 12:31:10;;;;;;;;;37.00;32.00;;;;;;;;6372015;22;45290;-61
2023/01/29 12:33:35;;;;;;;;;35.67;29.33;;;;;;;;6400908;22;45539;-66
2023/01/29 12:36:20;;;;;;;;;38.33;31.67;;;;;;;;6401201;22;45356;-61
2023/01/29 12:38:46;;;;;;;;;34.00;29.00;;;;;;;;6373348;22;46105;-60
2023/01/29 12:41:17;;;;;;;;;33.33;29.00;;;;;;;;6402704;22;45273;-61
2023/01/29 12:43:47;;;;;;;;;18.00;16.00;;;;;;;;6403476;22;45298;-61
2023/01/29 12:46:19;;;;;;;;;19.67;15.00;;;;;;;;6402262;22;45780;-59
2023/01/29 12:48:47;;;;;;;;;20.67;19.33;;;;;;;;6403167;22;46933;-61
2023/01/29 12:51:15;;;;;;;;;19.33;18.33;;;;;;;;6403429;22;45329;-60
2023/01/29 12:53:46;;;;;;;;;17.67;16.00;;;;;;;;6402832;22;45252;-60
2023/01/29 12:56:15;;;;;;;;;14.00;13.00;;;;;;;;6402244;22;45338;-61
2023/01/29 12:58:49;;;;;;;;;15.67;13.00;;;;;;;;6402997;22;46275;-60
2023/01/29 13:01:20;;;;;;;;;19.33;16.67;;;;;;;;6402020;22;45357;-61
2023/01/29 13:03:54;;;;;;;;;20.00;17.33;;;;;;;;6403423;22;45479;-60
2023/01/29 13:06:24;;;;;;;;;17.33;13.00;;;;;;;;6402456;22;45327;-60
2023/01/29 13:08:52;;;;;;;;;18.67;17.33;;;;;;;;6402810;22;45945;-61
2023/01/29 13:11:21;;;;;;;;;21.00;18.33;;;;;;;;6402630;22;45388;-60
2023/01/29 13:13:52;;;;;;;;;26.00;19.33;;;;;;;;6403331;22;45316;-61
2023/01/29 13:16:22;;;;;;;;;22.00;18.67;;;;;;;;6401866;22;45215;-61
2023/01/29 13:18:53;;;;;;;;;27.67;23.67;;;;;;;;6403019;22;46217;-60
2023/01/29 13:21:39;;;;;;;;;18.67;14.67;;;;;;;;6403494;22;45316;-61
2023/01/29 13:24:08;;;;;;;;;16.00;14.33;;;;;;;;6401379;22;45431;-60
2023/01/29 13:26:34;;;;;;;;;16.33;15.67;;;;;;;;6403218;22;45274;-60
2023/01/29 13:29:00;;;;;;;;;17.33;15.33;;;;;;;;6373454;22;47184;-59
2023/01/29 13:31:30;;;;;;;;;16.33;15.00;;;;;;;;6402963;22;45294;-61
2023/01/29 13:34:04;;;;;;;;;12.67;12.33;;;;;;;;6403092;22;45617;-60
2023/01/29 13:36:30;;;;;;;;;14.33;13.33;;;;;;;;6403845;22;45414;-60
2023/01/29 13:39:04;;;;;;;;;17.00;15.00;;;;;;;;6402177;22;46874;-60
2023/01/29 13:41:31;;;;;;;;;12.00;11.00;;;;;;;;6402792;22;45329;-59
2023/01/29 13:43:56;;;;;;;;;12.33;11.67;;;;;;;;6400993;22;45313;-58
2023/01/29 13:46:21;;;;;;;;;13.67;12.00;;;;;;;;6403900;22;45246;-60
2023/01/29 13:48:48;;;;;;;;;11.67;11.67;;;;;;;;6403548;22;45375;-59
2023/01/29 13:51:18;;;;;;;;;12.67;12.67;;;;;;;;6402838;22;45341;-60
2023/01/29 13:53:50;;;;;;;;;11.33;10.33;;;;;;;;6402779;22;45234;-60
2023/01/29 13:56:29;;;;;;;;;16.33;13.33;;;;;;;;6402823;22;45421;-59
2023/01/29 13:58:56;;;;;;;;;14.67;14.67;;;;;;;;6401658;22;46287;-60
2023/01/29 14:01:39;;;;;;;;;19.00;15.00;;;;;;;;6403284;22;45678;-60
2023/01/29 14:04:21;;;;;;;;;13.00;13.00;;;;;;;;6402824;22;45305;-60
2023/01/29 14:06:48;;;;;;;;;15.33;13.67;;;;;;;;6404289;22;45272;-60
2023/01/29 14:09:32;;;;;;;;;17.33;15.00;;;;;;;;6403001;22;45802;-60
2023/01/29 14:11:58;;;;;;;;;14.00;14.00;;;;;;;;6404108;22;45156;-60
2023/01/29 14:14:41;;;;;;;;;14.00;13.00;;;;;;;;6403920;22;45833;-61
2023/01/29 14:17:07;;;;;;;;;21.33;18.33;;;;;;;;6403790;22;46077;-60
2023/01/29 14:19:32;;;;;;;;;19.33;14.67;;;;;;;;6404253;22;46182;-60
2023/01/29 14:21:58;;;;;;;;;10.67;10.33;;;;;;;;6404453;22;45581;-60
2023/01/29 14:24:27;;;;;;;;;12.00;12.00;;;;;;;;6404223;22;45240;-60
2023/01/29 14:26:55;;;;;;;;;15.33;14.00;;;;;;;;6404310;22;45305;-60
2023/01/29 14:29:24;;;;;;;;;16.00;13.33;;;;;;;;6403971;22;46128;-60
2023/01/29 14:31:56;;;;;;;;;15.33;13.33;;;;;;;;6403170;22;45544;-60
2023/01/29 14:34:21;;;;;;;;;13.00;13.00;;;;;;;;6404009;22;45171;-60
2023/01/29 14:36:53;;;;;;;;;18.33;16.00;;;;;;;;6403696;22;45315;-60
2023/01/29 14:39:32;;;;;;;;;16.33;16.00;;;;;;;;6404211;22;45339;-60
2023/01/29 14:41:58;;;;;;;;;19.00;16.33;;;;;;;;6403722;22;45168;-59
2023/01/29 14:44:41;;;;;;;;;20.67;14.67;;;;;;;;6404485;22;45498;-60
2023/01/29 14:47:16;;;;;;;;;17.67;13.00;;;;;;;;6403693;22;45634;-60
2023/01/29 14:49:47;;;;;;;;;18.33;15.67;;;;;;;;6404085;22;45364;-61
2023/01/29 14:52:13;;;;;;;;;19.33;16.00;;;;;;;;6403586;22;45524;-60
2023/01/29 14:54:39;;;;;;;;;12.00;10.00;;;;;;;;6403964;22;45222;-60
2023/01/29 14:57:07;;;;;;;;;21.33;18.00;;;;;;;;6403749;22;45537;-61
2023/01/29 14:59:36;;;;;;;;;18.33;18.00;;;;;;;;6403982;22;45469;-60
2023/01/29 15:02:09;;;;;;;;;17.33;13.67;;;;;;;;6401181;22;45666;-60
2023/01/29 15:04:40;;;;;;;;;17.00;14.33;;;;;;;;6402398;22;45311;-61
2023/01/29 15:07:14;;;;;;;;;12.67;12.67;;;;;;;;6403379;22;45407;-61
2023/01/29 15:09:42;;;;;;;;;13.33;13.00;;;;;;;;6403470;22;46666;-59
2023/01/29 15:12:14;;;;;;;;;17.67;17.67;;;;;;;;6403743;22;45241;-61
2023/01/29 15:14:46;;;;;;;;;17.33;17.33;;;;;;;;6404899;22;45213;-60
2023/01/29 15:17:20;;;;;;;;;18.67;18.67;;;;;;;;6403422;22;45387;-60
2023/01/29 15:19:47;;;;;;;;;20.33;19.33;;;;;;;;6403584;22;46325;-61
2023/01/29 15:22:19;;;;;;;;;19.67;16.67;;;;;;;;6403876;22;45375;-59
2023/01/29 15:24:46;;;;;;;;;24.33;21.00;;;;;;;;6404518;22;45386;-59
2023/01/29 15:27:12;;;;;;;;;21.33;16.33;;;;;;;;6404164;22;45328;-59
2023/01/29 15:29:38;;;;;;;;;18.67;18.00;;;;;;;;6404783;22;45959;-60
2023/01/29 15:32:04;;;;;;;;;16.00;16.00;;;;;;;;6403665;22;45435;-59
2023/01/29 15:34:30;;;;;;;;;35.50;30.75;;;;;;;;6404562;22;45228;-60
2023/01/29 15:36:55;;;;;;;;;25.33;21.67;;;;;;;;6403715;22;45194;-60
2023/01/29 15:39:22;;;;;;;;;20.67;18.33;;;;;;;;6403570;22;45375;-60
2023/01/29 15:41:48;;;;;;;;;21.33;17.67;;;;;;;;6403764;22;45307;-60
2023/01/29 15:44:15;;;;;;;;;20.00;16.67;;;;;;;;6402445;22;45310;-60
2023/01/29 15:46:42;;;;;;;;;19.67;18.00;;;;;;;;6404255;22;45167;-60
2023/01/29 15:49:09;;;;;;;;;22.00;20.00;;;;;;;;6403682;22;46030;-60
2023/01/29 15:51:34;;;;;;;;;23.33;21.33;;;;;;;;6405040;22;45257;-60
2023/01/29 15:54:04;;;;;;;;;24.00;21.33;;;;;;;;6403692;22;45494;-60
2023/01/29 15:56:31;;;;;;;;;21.00;19.00;;;;;;;;6404164;22;45288;-60
2023/01/29 15:58:59;;;;;;;;;26.00;22.33;;;;;;;;6375367;22;46243;-60
2023/01/29 16:01:25;;;;;;;;;25.67;23.00;;;;;;;;6403198;22;45161;-60
2023/01/29 16:03:50;;;;;;;;;32.67;27.67;;;;;;;;6404027;22;45430;-60
2023/01/29 16:06:16;;;;;;;;;26.33;24.67;;;;;;;;6403730;22;45294;-61
2023/01/29 16:08:45;;;;;;;;;27.67;24.67;;;;;;;;6403723;22;45514;-62
2023/01/29 16:11:11;;;;;;;;;30.00;27.33;;;;;;;;6403757;22;45283;-59
2023/01/29 16:13:41;;;;;;;;;26.00;25.67;;;;;;;;6404377;22;45285;-60
2023/01/29 16:16:25;;;;;;;;;26.00;24.67;;;;;;;;6402634;22;45221;-60
2023/01/29 16:18:51;;;;;;;;;25.33;24.67;;;;;;;;6403282;22;46103;-60
2023/01/29 16:21:22;;;;;;;;;21.33;21.33;;;;;;;;6403731;22;45348;-59
2023/01/29 16:23:49;;;;;;;;;20.67;19.00;;;;;;;;6403120;22;45290;-60
2023/01/29 16:26:16;;;;;;;;;20.33;19.67;;;;;;;;6403977;22;45531;-59
2023/01/29 16:28:42;;;;;;;;;21.67;21.67;;;;;;;;6404212;22;45305;-60
2023/01/29 16:31:08;;;;;;;;;26.67;18.33;;;;;;;;6401454;22;45299;-59
2023/01/29 16:33:35;;;;;;;;;23.00;21.67;;;;;;;;6403368;22;45353;-59
2023/01/29 16:36:03;;;;;;;;;23.67;21.00;;;;;;;;6403318;22;45420;-59
2023/01/29 16:38:31;;;;;;;;;27.33;22.67;;;;;;;;6401934;22;47165;-59
2023/01/29 16:41:15;;;;;;;;;25.67;20.33;;;;;;;;6403053;22;45241;-60
2023/01/29 16:43:43;;;;;;;;;20.33;20.00;;;;;;;;6404686;22;45233;-61
2023/01/29 16:46:18;;;;;;;;;28.00;27.00;;;;;;;;6403652;22;45083;-60
2023/01/29 16:48:43;;;;;;;;;28.67;24.67;;;;;;;;6403960;22;46005;-61
2023/01/29 16:51:23;;;;;;;;;31.33;27.00;;;;;;;;6402021;22;45345;-60
2023/01/29 16:53:53;;;;;;;;;28.00;26.00;;;;;;;;6403928;22;45329;-60
2023/01/29 16:56:20;;;;;;;;;34.33;32.67;;;;;;;;6403031;22;45434;-60
2023/01/29 16:58:48;;;;;;;;;39.75;34.50;;;;;;;;6403630;22;47139;-60
2023/01/29 17:01:13;;;;;;;;;42.25;35.75;;;;;;;;6403100;22;45451;-60
2023/01/29 17:03:39;;;;;;;;;40.50;32.25;;;;;;;;6404490;22;45203;-60
2023/01/29 17:06:07;;;;;;;;;34.67;28.33;;;;;;;;6403642;22;45198;-60
2023/01/29 17:08:33;;;;;;;;;38.75;31.25;;;;;;;;6402294;22;45971;-61
2023/01/29 17:10:59;;;;;;;;;40.75;34.00;;;;;;;;6403162;22;45654;-59
2023/01/29 17:13:38;;;;;;;;;36.75;29.75;;;;;;;;6400645;22;45758;-60
2023/01/29 17:16:19;;;;;;;;;43.75;37.50;;;;;;;;6400148;22;45447;-60
2023/01/29 17:18:44;;;;;;;;;46.75;37.50;;;;;;;;6373047;22;48740;-61
2023/01/29 17:21:09;;;;;;;;;41.00;36.75;;;;;;;;6402994;22;45609;-60
2023/01/29 17:23:34;;;;;;;;;42.00;36.75;;;;;;;;6402001;22;45395;-61
2023/01/29 17:25:59;;;;;;;;;45.00;36.75;;;;;;;;6402363;22;45653;-61
2023/01/29 17:28:25;;;;;;;;;45.25;35.75;;;;;;;;6402163;22;46227;-60
2023/01/29 17:30:50;;;;;;;;;38.25;33.50;;;;;;;;6401246;22;45610;-60
2023/01/29 17:33:16;;;;;;;;;44.25;38.00;;;;;;;;6402565;22;45302;-60
2023/01/29 17:35:43;;;;;;;;;36.67;32.33;;;;;;;;6398871;22;45415;-60
2023/01/29 17:38:11;;;;;;;;;36.25;28.50;;;;;;;;6400142;22;46212;-60
2023/01/29 17:40:46;;;;;;;;;34.33;31.00;;;;;;;;6401547;22;45280;-60
2023/01/29 17:43:11;;;;;;;;;35.00;31.00;;;;;;;;6401475;22;45293;-60
2023/01/29 17:45:37;;;;;;;;;32.25;30.75;;;;;;;;6402465;22;45488;-59
2023/01/29 17:48:03;;;;;;;;;42.75;34.00;;;;;;;;6401925;22;45252;-59
2023/01/29 17:50:30;;;;;;;;;34.00;30.75;;;;;;;;6401607;22;45245;-60
2023/01/29 17:52:55;;;;;;;;;36.75;28.50;;;;;;;;6401337;22;45493;-60
2023/01/29 17:55:21;;;;;;;;;30.25;27.50;;;;;;;;6402526;22;45591;-60
2023/01/29 17:57:47;;;;;;;;;33.75;32.00;;;;;;;;6400298;22;46021;-60
2023/01/29 18:00:12;;;;;;;;;29.67;27.33;;;;;;;;6400934;22;45227;-60
2023/01/29 18:02:37;;;;;;;;;31.00;27.50;;;;;;;;6400185;22;45583;-60
2023/01/29 18:05:03;;;;;;;;;36.25;30.50;;;;;;;;6372586;22;45318;-60
2023/01/29 18:07:28;;;;;;;;;22.25;20.75;;;;;;;;6400698;22;45280;-60
2023/01/29 18:09:53;;;;;;;;;30.00;28.75;;;;;;;;6400021;22;45281;-60
2023/01/29 18:12:18;;;;;;;;;44.75;36.00;;;;;;;;6402023;22;45514;-60
2023/01/29 18:14:44;;;;;;;;;41.50;35.25;;;;;;;;6401050;22;45470;-60
2023/01/29 18:17:09;;;;;;;;;34.67;33.33;;;;;;;;6400097;22;45976;-59
2023/01/29 18:19:34;;;;;;;;;32.50;30.50;;;;;;;;6401470;22;45179;-60
2023/01/29 18:21:59;;;;;;;;;35.50;33.00;;;;;;;;6401139;22;45273;-59
2023/01/29 18:24:25;;;;;;;;;37.25;32.75;;;;;;;;6400219;22;45409;-59
2023/01/29 18:26:50;;;;;;;;;34.75;31.50;;;;;;;;6400930;22;45315;-59
2023/01/29 18:29:15;;;;;;;;;37.75;34.50;;;;;;;;6400300;22;45213;-60
2023/01/29 18:31:41;;;;;;;;;40.75;35.75;;;;;;;;6402027;22;45307;-61
2023/01/29 18:34:06;;;;;;;;;42.25;34.50;;;;;;;;6398823;22;45356;-59
2023/01/29 18:36:32;;;;;;;;;42.00;37.50;;;;;;;;6400307;22;46090;-60
2023/01/29 18:38:57;;;;;;;;;37.00;34.25;;;;;;;;6398252;22;45256;-59
2023/01/29 18:41:22;;;;;;;;;48.25;37.75;;;;;;;;6400657;22;45435;-60
2023/01/29 18:43:48;;;;;;;;;33.00;30.00;;;;;;;;6400657;22;45577;-60
2023/01/29 18:46:13;;;;;;;;;43.00;34.00;;;;;;;;6399819;22;46899;-60
2023/01/29 18:48:39;;;;;;;;;45.25;36.50;;;;;;;;6400158;22;45495;-60
2023/01/29 18:51:04;;;;;;;;;43.50;36.75;;;;;;;;6401840;22;45317;-59
2023/01/29 18:53:31;;;;;;;;;42.75;37.50;;;;;;;;6401829;22;45282;-60
2023/01/29 18:55:58;;;;;;;;;43.75;36.50;;;;;;;;6400585;22;46312;-60
2023/01/29 18:58:23;;;;;;;;;39.00;33.25;;;;;;;;6401498;22;45257;-60
2023/01/29 19:00:48;;;;;;;;;36.50;34.00;;;;;;;;6402021;22;45279;-60
2023/01/29 19:03:14;;;;;;;;;36.75;32.75;;;;;;;;6403926;22;45225;-61
2023/01/29 19:05:39;;;;;;;;;40.75;34.00;;;;;;;;6403938;22;46550;-59
2023/01/29 19:08:04;;;;;;;;;41.00;34.25;;;;;;;;6402689;22;45335;-60
2023/01/29 19:10:29;;;;;;;;;41.75;35.75;;;;;;;;6404054;22;45308;-60
2023/01/29 19:12:55;;;;;;;;;46.25;36.75;;;;;;;;6402331;22;45257;-59
2023/01/29 19:15:21;;;;;;;;;36.50;32.25;;;;;;;;6403083;22;45253;-59
2023/01/29 19:17:46;;;;;;;;;41.25;36.00;;;;;;;;6400287;22;45261;-59
2023/01/29 19:20:11;;;;;;;;;43.50;34.75;;;;;;;;6402348;22;45247;-59
2023/01/29 19:22:38;;;;;;;;;40.75;34.75;;;;;;;;6403335;22;45475;-59
2023/01/29 19:25:04;;;;;;;;;46.00;38.25;;;;;;;;6402401;22;46529;-59
2023/01/29 19:27:29;;;;;;;;;31.75;30.25;;;;;;;;6402602;22;45343;-59
2023/01/29 19:29:55;;;;;;;;;40.75;32.25;;;;;;;;6401575;22;45300;-59
2023/01/29 19:32:20;;;;;;;;;30.25;29.00;;;;;;;;6403824;22;45262;-59
2023/01/29 19:34:45;;;;;;;;;43.25;32.75;;;;;;;;6402913;22;46148;-59
2023/01/29 19:37:10;;;;;;;;;36.00;28.50;;;;;;;;6403181;22;45267;-59
2023/01/29 19:39:35;;;;;;;;;47.50;34.75;;;;;;;;6403998;22;45489;-60
2023/01/29 19:42:01;;;;;;;;;48.75;38.50;;;;;;;;6402671;22;45335;-59
2023/01/29 19:44:26;;;;;;;;;42.25;36.00;;;;;;;;6402735;22;46078;-59
2023/01/29 19:46:52;;;;;;;;;39.50;36.00;;;;;;;;6401953;22;45220;-59
2023/01/29 19:49:17;;;;;;;;;33.25;30.50;;;;;;;;6402922;22;45459;-59
2023/01/29 19:51:43;;;;;;;;;35.00;33.00;;;;;;;;6401169;22;45374;-59
2023/01/29 19:54:08;;;;;;;;;43.75;34.00;;;;;;;;6400777;22;46209;-59
2023/01/29 19:56:34;;;;;;;;;34.25;32.50;;;;;;;;6402377;22;45256;-59
2023/01/29 19:58:59;;;;;;;;;36.00;34.25;;;;;;;;6400262;22;45249;-59
2023/01/29 20:01:28;;;;;;;;;35.25;30.00;;;;;;;;6402305;22;45297;-59
2023/01/29 20:03:53;;;;;;;;;40.25;34.25;;;;;;;;6401203;22;46137;-59
2023/01/29 20:06:20;;;;;;;;;30.75;28.75;;;;;;;;6402986;22;45685;-60
2023/01/29 20:08:46;;;;;;;;;26.25;26.25;;;;;;;;6402976;22;45525;-60
2023/01/29 20:11:12;;;;;;;;;35.50;30.50;;;;;;;;6402000;22;45320;-65
2023/01/29 20:13:37;;;;;;;;;40.50;32.50;;;;;;;;6401727;22;46417;-65
2023/01/29 20:16:04;;;;;;;;;36.25;32.50;;;;;;;;6402222;22;45343;-64
2023/01/29 20:18:29;;;;;;;;;34.50;31.75;;;;;;;;6400671;22;45426;-66
2023/01/29 20:20:55;;;;;;;;;40.75;34.25;;;;;;;;6401967;22;45248;-66
2023/01/29 20:23:20;;;;;;;;;38.50;31.00;;;;;;;;6403009;22;45483;-65
2023/01/29 20:25:46;;;;;;;;;30.75;26.75;;;;;;;;6401805;22;45249;-65
2023/01/29 20:28:13;;;;;;;;;32.50;31.00;;;;;;;;6403054;22;45281;-65
2023/01/29 20:30:39;;;;;;;;;38.50;34.50;;;;;;;;6403619;22;45320;-65
2023/01/29 20:33:05;;;;;;;;;37.25;34.25;;;;;;;;6401533;22;46273;-66
2023/01/29 20:35:31;;;;;;;;;38.00;31.75;;;;;;;;6402612;22;45403;-65
2023/01/29 20:37:57;;;;;;;;;45.00;36.75;;;;;;;;6401137;22;45329;-66
2023/01/29 20:40:22;;;;;;;;;37.50;34.75;;;;;;;;6402363;22;45215;-66
2023/01/29 20:42:48;;;;;;;;;42.00;34.25;;;;;;;;6403402;22;46580;-66
2023/01/29 20:45:14;;;;;;;;;36.25;28.00;;;;;;;;6402266;22;45368;-65
2023/01/29 20:47:39;;;;;;;;;33.75;32.00;;;;;;;;6403056;22;45321;-65
2023/01/29 20:50:07;;;;;;;;;35.75;32.25;;;;;;;;6400616;22;45304;-65
2023/01/29 20:52:35;;;;;;;;;38.25;33.00;;;;;;;;6401617;22;45997;-65
2023/01/29 20:55:01;;;;;;;;;33.50;29.50;;;;;;;;6373869;22;45268;-66
2023/01/29 20:57:26;;;;;;;;;32.00;32.00;;;;;;;;6396875;22;45203;-66
2023/01/29 20:59:52;;;;;;;;;36.25;34.50;;;;;;;;6369940;22;45477;-64
2023/01/29 21:02:17;;;;;;;;;36.00;30.00;;;;;;;;6401634;22;46069;-65
2023/01/29 21:04:42;;;;;;;;;41.00;35.75;;;;;;;;6401235;22;45309;-65
2023/01/29 21:07:07;;;;;;;;;33.50;30.00;;;;;;;;6400228;22;45646;-64
2023/01/29 21:09:32;;;;;;;;;37.25;33.25;;;;;;;;6399722;22;45441;-64
2023/01/29 21:11:58;;;;;;;;;38.50;33.25;;;;;;;;6402292;22;45922;-64
2023/01/29 21:14:23;;;;;;;;;33.50;30.25;;;;;;;;6402120;22;45327;-64
2023/01/29 21:16:48;;;;;;;;;32.00;30.00;;;;;;;;6400604;22;45458;-64
2023/01/29 21:19:13;;;;;;;;;35.75;33.75;;;;;;;;6401910;22;45288;-65
2023/01/29 21:21:39;;;;;;;;;40.50;33.25;;;;;;;;6402290;22;46143;-65